Sharon Hill, Pennsylvania
Current Conditions -  °F | °C
As of 4:54 AM on Sunday 23 Nov 2014 (Local Time) from KPHL Reporting Station
Overcast Overcast  
Wind Chill: 37°   Ceiling: 11000
Heat Index: 41°   Visibility: 10mi
Dew Point: 23°   Wind: 6mph
Humidity: 49%   Direction: 250°WSW
Pressure: 30.23"   Gusts: NA
Location:  39.91°N, 75.27°W
Report Text: KPHL 230954Z 25005KT 10SM FEW090 BKN110 OVC250 05/M05 A3023 RMK AO2 SLP235 T00501050 $
Loading
Personal Weather Stations






























Interactive Weather Map New forecast layout! Learn more

10-Day Weather Forecast

Advertisements
Track Severe Weather on mobile